Time;durP1;ratioP1;P1;durP2;ratioP2;P2;SDS_P1;SDS_P2;PMS_P1;PMS_P2;Temp;Humidity;BMP_temperature;BMP_pressure;BME280_temperature;BME280_humidity;BME280_pressure;Samples;Min_cycle;Max_cycle;Signal;HPM_P1;HPM_P2
2022/08/25 00:02:05;;;;;;;;;;;;;;;22.26;30.55;97459.69;5016185;28;931;-78
2022/08/25 00:04:31;;;;;;;;;;;;;;;22.27;30.31;97457.66;4998245;28;2180;-78
2022/08/25 00:06:56;;;;;;;;;;;;;;;22.33;30.41;97450.94;5016166;28;898;-78
2022/08/25 00:09:23;;;;;;;;;;;;;;;22.51;29.94;97452.28;5015818;28;1906;-77
2022/08/25 00:11:49;;;;;;;;;;;;;;;22.46;30.09;97445.16;5016093;28;960;-78
2022/08/25 00:14:18;;;;;;;;;;;;;;;22.42;30.37;97443.72;5015680;28;867;-78
2022/08/25 00:16:44;;;;;;;;;;;;;;;22.14;30.68;97445.63;4993818;28;1031;-78
2022/08/25 00:19:11;;;;;;;;;;;;;;;22.29;30.59;97436.09;4993829;28;971;-77
2022/08/25 00:21:36;;;;;;;;;;;;;;;22.35;30.68;97434.25;4993808;28;905;-78
2022/08/25 00:24:02;;;;;;;;;;;;;;;22.28;30.53;97428.88;4993554;28;1077;-78
2022/08/25 00:26:28;;;;;;;;;;;;;;;22.40;30.66;97429.25;4961120;28;993;-78
2022/08/25 00:28:54;;;;;;;;;;;;;;;22.52;30.60;97414.16;4994152;28;1907;-78
2022/08/25 00:31:20;;;;;;;;;;;;;;;22.36;30.94;97412.34;4993657;28;974;-78
2022/08/25 00:33:46;;;;;;;;;;;;;;;22.54;30.37;97406.00;4993411;28;963;-78
2022/08/25 00:36:11;;;;;;;;;;;;;;;22.49;30.80;97398.91;4993664;28;964;-78
2022/08/25 00:38:38;;;;;;;;;;;;;;;22.53;30.65;97393.06;4993683;28;927;-78
2022/08/25 00:41:06;;;;;;;;;;;;;;;22.29;30.92;97379.44;4993365;28;981;-77
2022/08/25 00:43:41;;;;;;;;;;;;;;;22.45;30.77;97374.78;4962200;28;1018;-78
2022/08/25 00:46:10;;;;;;;;;;;;;;;22.15;31.60;97374.31;4977229;28;1492;-78
2022/08/25 00:48:36;;;;;;;;;;;;;;;22.29;31.61;97367.31;4993243;28;1978;-78
2022/08/25 00:51:01;;;;;;;;;;;;;;;22.61;30.75;97360.34;4977663;28;909;-78
2022/08/25 00:53:27;;;;;;;;;;;;;;;22.64;30.90;97356.59;4994921;28;877;-78
2022/08/25 00:55:52;;;;;;;;;;;;;;;22.50;31.03;97366.44;5015814;28;863;-78
2022/08/25 00:58:20;;;;;;;;;;;;;;;22.54;31.08;97352.13;5014997;28;1137;-78
2022/08/25 01:00:47;;;;;;;;;;;;;;;22.34;31.21;97350.47;4998504;28;916;-78
2022/08/25 01:03:12;;;;;;;;;;;;;;;22.24;31.40;97354.53;5001574;28;980;-78
2022/08/25 01:05:38;;;;;;;;;;;;;;;22.32;31.47;97352.97;5019191;28;823;-78
2022/08/25 01:08:05;;;;;;;;;;;;;;;22.54;31.01;97363.47;5018689;28;831;-78
2022/08/25 01:10:31;;;;;;;;;;;;;;;22.32;30.81;97366.34;5019010;28;1898;-78
2022/08/25 01:12:58;;;;;;;;;;;;;;;22.53;30.70;97367.53;5001259;28;959;-77
2022/08/25 01:15:24;;;;;;;;;;;;;;;22.22;30.98;97371.19;5001043;28;919;-78
2022/08/25 01:17:50;;;;;;;;;;;;;;;22.23;30.73;97358.63;5018628;28;953;-77
2022/08/25 01:20:16;;;;;;;;;;;;;;;22.47;30.55;97366.59;5001011;28;977;-78
2022/08/25 01:22:42;;;;;;;;;;;;;;;22.39;30.19;97365.31;5018264;28;938;-78
2022/08/25 01:25:23;;;;;;;;;;;;;;;22.40;30.38;97361.22;5018509;28;1254;-79
2022/08/25 01:27:48;;;;;;;;;;;;;;;22.20;30.66;97353.88;5018370;28;939;-78
2022/08/25 01:30:14;;;;;;;;;;;;;;;22.16;30.61;97336.22;5000833;28;1902;-78
2022/08/25 01:32:39;;;;;;;;;;;;;;;22.38;30.18;97329.69;4976946;28;961;-78
2022/08/25 01:35:05;;;;;;;;;;;;;;;22.55;30.16;97323.31;4976806;28;1008;-78
2022/08/25 01:37:33;;;;;;;;;;;;;;;22.67;29.86;97318.75;4928337;28;969;-78
2022/08/25 01:39:58;;;;;;;;;;;;;;;22.49;30.13;97313.84;4976765;28;931;-77
2022/08/25 01:42:53;;;;;;;;;;;;;;;22.32;30.74;97316.13;4976864;28;993;-77
2022/08/25 01:45:19;;;;;;;;;;;;;;;22.29;30.80;97302.91;4938202;29;980;-77
2022/08/25 01:47:44;;;;;;;;;;;;;;;22.49;30.16;97313.06;4938118;29;1075;-78
2022/08/25 01:50:10;;;;;;;;;;;;;;;22.53;30.38;97308.00;4937916;29;1899;-77
2022/08/25 01:52:50;;;;;;;;;;;;;;;22.47;30.42;97310.66;4938348;29;841;-78
2022/08/25 01:55:16;;;;;;;;;;;;;;;22.13;30.84;97291.03;4938182;29;940;-78
2022/08/25 01:57:41;;;;;;;;;;;;;;;22.24;30.58;97297.84;4937795;29;1045;-78
2022/08/25 02:00:07;;;;;;;;;;;;;;;22.31;30.47;97297.53;4938203;29;1039;-78
2022/08/25 02:02:36;;;;;;;;;;;;;;;22.51;29.99;97294.31;4940666;28;999;-78
2022/08/25 02:05:01;;;;;;;;;;;;;;;22.48;30.32;97289.56;4960180;28;983;-78
2022/08/25 02:07:27;;;;;;;;;;;;;;;22.21;30.77;97286.66;4976444;28;938;-77
2022/08/25 02:09:52;;;;;;;;;;;;;;;22.27;30.53;97285.56;4975992;28;1979;-78
2022/08/25 02:12:18;;;;;;;;;;;;;;;22.22;30.52;97286.19;4976248;28;1116;-77
2022/08/25 02:14:44;;;;;;;;;;;;;;;22.41;30.43;97283.41;4937360;29;953;-78
2022/08/25 02:17:10;;;;;;;;;;;;;;;22.35;30.52;97286.88;4937307;29;988;-78
2022/08/25 02:19:35;;;;;;;;;;;;;;;22.35;30.46;97281.19;4937416;29;1032;-78
2022/08/25 02:22:01;;;;;;;;;;;;;;;22.39;30.32;97281.06;4962495;28;895;-78
2022/08/25 02:24:26;;;;;;;;;;;;;;;22.57;30.26;97269.75;4918271;29;1065;-78
2022/08/25 02:26:52;;;;;;;;;;;;;;;22.39;30.53;97263.25;4902475;29;1310;-77
2022/08/25 02:29:17;;;;;;;;;;;;;;;22.52;30.47;97266.75;4918455;29;1910;-78
2022/08/25 02:31:43;;;;;;;;;;;;;;;22.41;30.43;97272.88;4862302;29;984;-78
2022/08/25 02:34:08;;;;;;;;;;;;;;;22.27;31.21;97268.56;4861964;29;1049;-78
2022/08/25 02:36:33;;;;;;;;;;;;;;;22.43;30.59;97270.34;4862197;29;982;-78
2022/08/25 02:38:59;;;;;;;;;;;;;;;22.32;30.89;97270.78;4846843;29;990;-77
2022/08/25 02:41:24;;;;;;;;;;;;;;;22.49;30.65;97273.38;4861754;29;986;-78
2022/08/25 02:43:50;;;;;;;;;;;;;;;22.43;30.44;97269.56;4846769;29;1053;-78
2022/08/25 02:46:16;;;;;;;;;;;;;;;22.42;30.67;97256.63;4846539;29;971;-78
2022/08/25 02:48:41;;;;;;;;;;;;;;;22.29;30.80;97260.41;4846407;29;1982;-78
2022/08/25 02:51:08;;;;;;;;;;;;;;;22.34;30.99;97268.28;4864487;29;972;-78
2022/08/25 02:53:33;;;;;;;;;;;;;;;22.29;31.03;97266.06;4899322;29;945;-79
2022/08/25 02:55:59;;;;;;;;;;;;;;;22.48;30.84;97263.25;4899030;29;918;-79
2022/08/25 02:58:24;;;;;;;;;;;;;;;22.54;30.51;97264.25;4898820;29;1225;-78
2022/08/25 03:00:50;;;;;;;;;;;;;;;22.31;31.17;97257.88;4903106;29;1216;-77
2022/08/25 03:03:15;;;;;;;;;;;;;;;22.48;30.90;97255.53;4983458;28;895;-77
2022/08/25 03:05:41;;;;;;;;;;;;;;;22.45;30.51;97261.38;4999222;28;864;-79
2022/08/25 03:08:06;;;;;;;;;;;;;;;22.43;30.85;97263.88;5016293;28;905;-79
2022/08/25 03:10:32;;;;;;;;;;;;;;;22.53;30.52;97269.09;5016437;28;1991;-78
2022/08/25 03:12:57;;;;;;;;;;;;;;;22.34;30.91;97268.28;5016085;28;1053;-77
2022/08/25 03:15:24;;;;;;;;;;;;;;;22.33;31.09;97266.72;5016219;28;937;-78
2022/08/25 03:17:50;;;;;;;;;;;;;;;22.45;30.84;97272.72;5016621;28;939;-78
2022/08/25 03:20:15;;;;;;;;;;;;;;;22.40;31.05;97276.16;5016514;28;936;-78
2022/08/25 03:22:41;;;;;;;;;;;;;;;22.49;30.95;97270.53;5016453;28;927;-78
2022/08/25 03:27:51;;;;;;;;;;;;;;;22.52;30.66;97272.41;5015945;28;924;-79
2022/08/25 03:30:16;;;;;;;;;;;;;;;22.54;30.93;97269.91;5016325;28;1993;-78
2022/08/25 03:32:42;;;;;;;;;;;;;;;22.59;30.54;97272.13;5016145;28;916;-78
2022/08/25 03:35:07;;;;;;;;;;;;;;;22.24;31.25;97271.56;5016222;28;869;-78
2022/08/25 03:37:33;;;;;;;;;;;;;;;22.30;31.33;97266.84;5015977;28;897;-77
2022/08/25 03:39:58;;;;;;;;;;;;;;;22.38;31.16;97273.00;5015674;28;844;-78
2022/08/25 03:42:25;;;;;;;;;;;;;;;22.47;31.15;97273.03;5016033;28;811;-78
2022/08/25 03:44:50;;;;;;;;;;;;;;;22.41;31.19;97283.41;5015951;28;1002;-77
2022/08/25 03:47:16;;;;;;;;;;;;;;;22.33;31.55;97275.22;5015914;28;929;-78
2022/08/25 03:49:41;;;;;;;;;;;;;;;22.59;31.23;97283.47;5016200;28;1918;-78
2022/08/25 03:52:07;;;;;;;;;;;;;;;22.17;31.56;97283.94;5016265;28;862;-78
2022/08/25 03:54:32;;;;;;;;;;;;;;;22.39;31.23;97292.41;4997526;28;1251;-79
2022/08/25 03:56:58;;;;;;;;;;;;;;;22.36;31.58;97294.09;5015777;28;920;-78
2022/08/25 03:59:25;;;;;;;;;;;;;;;22.50;31.19;97295.56;5015895;28;858;-78
2022/08/25 04:01:51;;;;;;;;;;;;;;;22.46;31.17;97291.31;5015705;28;930;-78
2022/08/25 04:04:16;;;;;;;;;;;;;;;22.39;31.26;97297.28;5015968;28;893;-78
2022/08/25 04:06:42;;;;;;;;;;;;;;;22.28;30.92;97286.38;5016568;28;938;-78
2022/08/25 04:09:08;;;;;;;;;;;;;;;22.24;31.28;97286.50;5015545;28;1906;-78
2022/08/25 04:11:33;;;;;;;;;;;;;;;22.50;30.56;97303.28;5015669;28;968;-78
2022/08/25 04:14:00;;;;;;;;;;;;;;;22.35;31.02;97292.53;5015818;28;920;-78
2022/08/25 04:16:26;;;;;;;;;;;;;;;22.43;30.70;97293.00;4973953;28;955;-78
2022/08/25 04:18:52;;;;;;;;;;;;;;;22.41;30.57;97294.75;4965879;28;1121;-78
2022/08/25 04:21:17;;;;;;;;;;;;;;;22.33;30.99;97295.06;4949634;28;1243;-78
2022/08/25 04:23:43;;;;;;;;;;;;;;;22.50;30.45;97303.28;4961997;28;1222;-78
2022/08/25 04:26:09;;;;;;;;;;;;;;;22.19;30.95;97297.66;4923684;29;1300;-78
2022/08/25 04:28:35;;;;;;;;;;;;;;;22.06;31.23;97303.41;4926035;29;2000;-78
2022/08/25 04:31:01;;;;;;;;;;;;;;;22.18;30.92;97304.59;4924724;29;1311;-78
2022/08/25 04:33:26;;;;;;;;;;;;;;;22.45;30.74;97306.75;4926112;29;1243;-78
2022/08/25 04:35:51;;;;;;;;;;;;;;;22.42;30.76;97296.31;4934361;29;1322;-78
2022/08/25 04:38:17;;;;;;;;;;;;;;;22.43;30.46;97309.22;4939490;29;841;-78
2022/08/25 04:40:43;;;;;;;;;;;;;;;22.20;31.08;97308.53;4939664;29;938;-78
2022/08/25 04:43:08;;;;;;;;;;;;;;;22.32;30.89;97304.78;4939233;29;992;-78
2022/08/25 04:45:37;;;;;;;;;;;;;;;22.52;30.45;97306.44;4939168;29;951;-78
2022/08/25 04:48:03;;;;;;;;;;;;;;;22.20;30.94;97307.75;4953815;29;993;-77
2022/08/25 04:50:28;;;;;;;;;;;;;;;22.42;30.70;97304.81;4910750;29;1961;-78
2022/08/25 04:52:54;;;;;;;;;;;;;;;22.50;30.41;97304.06;4958254;29;989;-78
2022/08/25 04:55:20;;;;;;;;;;;;;;;22.32;30.92;97304.78;4958234;29;887;-78
2022/08/25 04:57:45;;;;;;;;;;;;;;;22.19;31.32;97301.28;4989524;28;945;-78
2022/08/25 05:00:11;;;;;;;;;;;;;;;22.59;30.88;97311.81;4999392;28;896;-78
2022/08/25 05:02:37;;;;;;;;;;;;;;;22.30;31.14;97307.31;4999429;28;913;-78
2022/08/25 05:05:03;;;;;;;;;;;;;;;22.28;31.14;97309.84;4999447;28;969;-78
2022/08/25 05:07:28;;;;;;;;;;;;;;;22.18;31.40;97315.94;4999318;28;913;-78
2022/08/25 05:09:54;;;;;;;;;;;;;;;22.04;31.57;97311.56;4999118;28;1972;-78
2022/08/25 05:12:19;;;;;;;;;;;;;;;22.28;31.28;97309.84;4981684;28;925;-78
2022/08/25 05:14:45;;;;;;;;;;;;;;;22.30;31.21;97315.81;4999992;28;921;-77
2022/08/25 05:17:10;;;;;;;;;;;;;;;22.11;31.49;97311.31;4998825;28;1025;-77
2022/08/25 05:19:36;;;;;;;;;;;;;;;22.44;30.85;97308.78;4980812;28;939;-78
2022/08/25 05:22:01;;;;;;;;;;;;;;;22.25;31.19;97299.41;4998619;28;1466;-78
2022/08/25 05:24:26;;;;;;;;;;;;;;;22.38;31.16;97301.34;4999148;28;1032;-77
2022/08/25 05:26:52;;;;;;;;;;;;;;;22.31;31.26;97297.53;4998952;28;927;-78
2022/08/25 05:29:18;;;;;;;;;;;;;;;22.32;31.30;97293.44;4999240;28;1987;-77
2022/08/25 05:31:44;;;;;;;;;;;;;;;22.55;30.89;97294.97;4957409;29;1112;-78
2022/08/25 05:34:10;;;;;;;;;;;;;;;22.38;31.08;97295.69;4957466;29;919;-77
2022/08/25 05:36:37;;;;;;;;;;;;;;;22.45;30.98;97301.06;4957966;29;940;-78
2022/08/25 05:39:03;;;;;;;;;;;;;;;22.34;31.41;97298.69;4966522;28;1264;-77
2022/08/25 05:41:29;;;;;;;;;;;;;;;22.39;31.33;97298.06;4976658;28;939;-78
2022/08/25 05:43:54;;;;;;;;;;;;;;;22.26;31.45;97309.50;4977276;28;957;-78
2022/08/25 05:46:20;;;;;;;;;;;;;;;22.46;31.36;97302.66;4976849;28;923;-78
2022/08/25 05:48:46;;;;;;;;;;;;;;;22.34;31.56;97296.63;4976051;28;1979;-77
2022/08/25 05:51:11;;;;;;;;;;;;;;;22.38;31.53;97296.47;4921700;29;1172;-78
2022/08/25 05:53:38;;;;;;;;;;;;;;;22.41;31.37;97300.41;4922476;29;987;-78
2022/08/25 05:56:03;;;;;;;;;;;;;;;22.59;30.99;97306.16;4918771;29;1127;-78
2022/08/25 05:58:29;;;;;;;;;;;;;;;22.60;31.29;97302.06;4919078;29;995;-78
2022/08/25 06:00:54;;;;;;;;;;;;;;;22.31;31.76;97308.88;4919213;29;896;-78
2022/08/25 06:03:20;;;;;;;;;;;;;;;22.44;31.57;97305.16;4933090;29;1032;-78
2022/08/25 06:05:45;;;;;;;;;;;;;;;22.39;31.75;97314.28;4937783;29;1076;-78
2022/08/25 06:08:11;;;;;;;;;;;;;;;22.49;31.70;97315.91;4937776;29;1001;-78
2022/08/25 06:10:36;;;;;;;;;;;;;;;22.62;31.47;97316.53;4938002;29;1975;-78
2022/08/25 06:13:02;;;;;;;;;;;;;;;22.54;31.73;97321.75;4937947;29;958;-78
2022/08/25 06:15:27;;;;;;;;;;;;;;;22.66;31.62;97317.19;4937684;29;1023;-78
2022/08/25 06:17:55;;;;;;;;;;;;;;;22.68;31.39;97325.22;4937759;29;1172;-78
2022/08/25 06:20:21;;;;;;;;;;;;;;;22.58;31.71;97328.03;4937636;29;1014;-77
2022/08/25 06:22:47;;;;;;;;;;;;;;;22.59;31.73;97335.31;4937764;29;935;-78
2022/08/25 06:25:14;;;;;;;;;;;;;;;22.66;31.87;97334.22;4937573;29;1099;-77
2022/08/25 06:27:40;;;;;;;;;;;;;;;22.71;31.55;97330.75;4956543;28;1016;-78
2022/08/25 06:30:07;;;;;;;;;;;;;;;22.73;31.50;97330.28;4997687;28;1985;-78
2022/08/25 06:32:34;;;;;;;;;;;;;;;22.70;31.55;97326.34;4997994;28;869;-78
2022/08/25 06:35:00;;;;;;;;;;;;;;;22.72;31.41;97332.31;4994946;28;952;-78
2022/08/25 06:37:26;;;;;;;;;;;;;;;22.68;31.56;97331.69;4995505;28;855;-78
2022/08/25 06:39:51;;;;;;;;;;;;;;;22.50;31.94;97326.75;4994887;28;1036;-78
2022/08/25 06:42:17;;;;;;;;;;;;;;;22.55;31.86;97333.88;4995464;28;907;-78
2022/08/25 06:44:42;;;;;;;;;;;;;;;22.53;31.87;97339.19;4994952;28;1036;-78
2022/08/25 06:47:08;;;;;;;;;;;;;;;22.59;31.96;97334.50;4994665;28;936;-78
2022/08/25 06:49:34;;;;;;;;;;;;;;;22.47;31.91;97338.22;4994982;28;1906;-78
2022/08/25 06:51:59;;;;;;;;;;;;;;;22.52;31.92;97329.13;4994775;28;929;-78
2022/08/25 06:54:25;;;;;;;;;;;;;;;22.58;31.98;97338.59;4994808;28;974;-77
2022/08/25 06:56:50;;;;;;;;;;;;;;;22.64;31.70;97336.72;4994844;28;993;-78
2022/08/25 06:59:16;;;;;;;;;;;;;;;22.38;32.55;97335.34;4961481;28;978;-78
2022/08/25 07:01:42;;;;;;;;;;;;;;;22.72;31.60;97342.88;4994493;28;889;-77
2022/08/25 07:04:07;;;;;;;;;;;;;;;22.54;32.05;97333.06;4995006;28;1075;-78
2022/08/25 07:06:36;;;;;;;;;;;;;;;22.53;32.46;97331.47;4995190;28;919;-78
2022/08/25 07:09:05;;;;;;;;;;;;;;;22.58;32.09;97338.59;4997228;28;1981;-78
2022/08/25 07:11:33;;;;;;;;;;;;;;;22.63;32.24;97344.44;4996967;28;907;-77
2022/08/25 07:13:59;;;;;;;;;;;;;;;22.76;32.09;97344.31;4996674;28;1654;-78
2022/08/25 07:16:25;;;;;;;;;;;;;;;22.73;32.52;97348.09;4990957;28;1844;-78
2022/08/25 07:18:55;;;;;;;;;;;;;;;22.68;32.39;97354.38;4977148;28;902;-78
2022/08/25 07:21:20;;;;;;;;;;;;;;;22.76;32.33;97341.47;4960154;28;897;-78
2022/08/25 07:23:46;;;;;;;;;;;;;;;22.82;32.48;97353.78;4977431;28;1063;-78
2022/08/25 07:26:12;;;;;;;;;;;;;;;22.63;32.88;97354.97;4977208;28;965;-78
2022/08/25 07:28:38;;;;;;;;;;;;;;;22.66;32.46;97345.56;4959718;28;1980;-77
2022/08/25 07:31:04;;;;;;;;;;;;;;;22.67;32.72;97352.78;4985011;28;1492;-78
2022/08/25 07:33:30;;;;;;;;;;;;;;;22.71;32.69;97359.13;4996769;28;1010;-77
2022/08/25 07:35:56;;;;;;;;;;;;;;;22.55;32.63;97350.88;4974210;28;1167;-78
2022/08/25 07:38:21;;;;;;;;;;;;;;;22.71;32.55;97361.94;4974243;28;1559;-78
2022/08/25 07:40:53;;;;;;;;;;;;;;;22.75;32.34;97354.09;4974125;28;1548;-78
2022/08/25 07:43:19;;;;;;;;;;;;;;;22.78;32.26;97352.34;4974591;28;973;-78
2022/08/25 07:45:44;;;;;;;;;;;;;;;22.70;32.37;97360.38;4974762;28;985;-77
2022/08/25 07:48:10;;;;;;;;;;;;;;;22.66;32.63;97362.56;4974054;28;1438;-78
2022/08/25 07:50:37;;;;;;;;;;;;;;;22.87;32.04;97355.22;4972772;28;1992;-77
2022/08/25 07:53:03;;;;;;;;;;;;;;;22.77;32.26;97357.25;4972020;28;1584;-78
2022/08/25 07:55:29;;;;;;;;;;;;;;;22.87;32.11;97353.16;4974543;28;959;-77
2022/08/25 07:57:55;;;;;;;;;;;;;;;22.73;32.46;97362.25;4973896;28;1481;-78
2022/08/25 08:00:21;;;;;;;;;;;;;;;22.74;32.44;97351.69;4974467;28;885;-78
2022/08/25 08:02:46;;;;;;;;;;;;;;;22.70;32.85;97346.19;4974448;28;1036;-78
2022/08/25 08:05:12;;;;;;;;;;;;;;;22.77;32.71;97340.22;4974405;28;896;-78
2022/08/25 08:07:38;;;;;;;;;;;;;;;22.64;32.90;97348.06;4974388;28;826;-78
2022/08/25 08:10:04;;;;;;;;;;;;;;;22.50;32.77;97348.66;4989025;28;1918;-78
2022/08/25 08:12:29;;;;;;;;;;;;;;;22.83;32.33;97341.16;4980168;28;823;-78
2022/08/25 08:14:55;;;;;;;;;;;;;;;22.68;32.14;97331.69;4991515;28;956;-78
2022/08/25 08:17:20;;;;;;;;;;;;;;;22.71;32.39;97325.09;5000063;28;868;-78
2022/08/25 08:19:46;;;;;;;;;;;;;;;22.65;32.21;97321.28;4999533;28;831;-78
2022/08/25 08:22:13;;;;;;;;;;;;;;;22.74;32.39;97323.34;4982541;28;941;-78
2022/08/25 08:24:39;;;;;;;;;;;;;;;22.56;32.65;97318.44;4982435;28;1079;-78
2022/08/25 08:27:06;;;;;;;;;;;;;;;22.50;32.40;97308.97;4958416;29;973;-78
2022/08/25 08:29:31;;;;;;;;;;;;;;;22.60;32.52;97307.72;4954353;29;2302;-78
2022/08/25 08:31:57;;;;;;;;;;;;;;;22.76;32.05;97304.63;4957496;28;1328;-78
2022/08/25 08:34:23;;;;;;;;;;;;;;;22.83;31.76;97315.66;4958277;29;767;-77
2022/08/25 08:36:48;;;;;;;;;;;;;;;22.81;31.86;97312.50;4916670;29;1775;-78
2022/08/25 08:39:13;;;;;;;;;;;;;;;22.76;32.15;97310.28;4901487;29;1237;-78
2022/08/25 08:44:45;;;;;;;;;;;;;;;22.87;31.73;97307.78;4905785;29;1750;-78
2022/08/25 08:47:10;;;;;;;;;;;;;;;22.79;31.79;97309.31;4920091;29;993;-78
2022/08/25 08:49:39;;;;;;;;;;;;;;;22.81;32.01;97303.19;4920336;29;1974;-78
2022/08/25 08:52:04;;;;;;;;;;;;;;;22.69;32.41;97310.59;4920029;29;978;-78
2022/08/25 08:54:31;;;;;;;;;;;;;;;22.87;32.13;97304.94;4920208;29;921;-77
2022/08/25 08:57:05;;;;;;;;;;;;;;;22.90;32.04;97313.78;4921100;29;1099;-77
2022/08/25 08:59:33;;;;;;;;;;;;;;;22.82;32.13;97313.28;4956662;29;2170;-77
2022/08/25 09:02:00;;;;;;;;;;;;;;;22.72;32.60;97306.81;4942048;29;959;-77
2022/08/25 09:04:31;;;;;;;;;;;;;;;22.69;32.68;97304.94;4946527;29;2097;-78
2022/08/25 09:06:56;;;;;;;;;;;;;;;22.73;32.44;97305.53;4924882;29;925;-78
2022/08/25 09:09:21;;;;;;;;;;;;;;;22.67;32.79;97296.09;4956335;29;2073;-77
2022/08/25 09:12:05;;;;;;;;;;;;;;;22.71;32.37;97295.94;4957924;29;909;-78
2022/08/25 09:14:33;;;;;;;;;;;;;;;22.56;32.78;97296.53;4957815;29;1036;-78
2022/08/25 09:17:05;;;;;;;;;;;;;;;22.65;32.84;97292.94;4956606;29;2017;-77
2022/08/25 09:19:30;;;;;;;;;;;;;;;22.73;32.38;97284.91;4957979;29;979;-78
2022/08/25 09:22:01;;;;;;;;;;;;;;;22.62;32.74;97288.19;4955884;28;1935;-78
2022/08/25 09:24:31;;;;;;;;;;;;;;;22.83;32.65;97281.59;4957718;29;1210;-77
2022/08/25 09:27:02;;;;;;;;;;;;;;;22.64;32.95;97274.34;4941582;29;1004;-78
2022/08/25 09:29:29;;;;;;;;;;;;;;;22.84;32.61;97293.75;4957346;29;1977;-77
2022/08/25 09:31:55;;;;;;;;;;;;;;;22.79;32.65;97278.13;4938341;29;1016;-78
2022/08/25 09:34:22;;;;;;;;;;;;;;;22.92;32.53;97282.91;4938331;29;959;-78
2022/08/25 09:36:49;;;;;;;;;;;;;;;22.66;33.04;97269.00;4896701;29;1889;-78
2022/08/25 09:39:15;;;;;;;;;;;;;;;22.79;32.67;97283.00;4898343;29;1874;-78
2022/08/25 09:41:41;;;;;;;;;;;;;;;23.02;32.38;97270.31;4919187;29;921;-79
2022/08/25 09:44:27;;;;;;;;;;;;;;;22.69;33.13;97282.25;4919272;29;942;-78
2022/08/25 09:46:56;;;;;;;;;;;;;;;22.88;32.70;97272.50;4906817;29;2081;-77
2022/08/25 09:49:21;;;;;;;;;;;;;;;22.84;32.76;97277.50;4882749;29;1992;-78
2022/08/25 09:51:47;;;;;;;;;;;;;;;22.72;32.95;97269.94;4881095;29;1018;-79
2022/08/25 09:54:12;;;;;;;;;;;;;;;22.77;32.84;97277.81;4881330;29;1016;-78
2022/08/25 09:56:54;;;;;;;;;;;;;;;22.76;33.03;97281.13;4881337;29;932;-78
2022/08/25 09:59:21;;;;;;;;;;;;;;;22.80;32.94;97287.44;4881150;29;1013;-78
2022/08/25 10:01:53;;;;;;;;;;;;;;;22.67;32.94;97296.09;4886220;29;1620;-77
2022/08/25 10:04:28;;;;;;;;;;;;;;;22.69;32.72;97302.09;4938097;29;903;-78
2022/08/25 10:06:53;;;;;;;;;;;;;;;22.81;32.36;97289.03;4941987;28;2393;-79
2022/08/25 10:09:37;;;;;;;;;;;;;;;22.83;32.32;97292.94;4978213;28;1903;-78
2022/08/25 10:12:13;;;;;;;;;;;;;;;22.93;32.23;97285.28;4960992;28;1365;-78
2022/08/25 10:14:39;;;;;;;;;;;;;;;22.74;32.71;97306.31;4966179;28;1784;-78
2022/08/25 10:17:24;;;;;;;;;;;;;;;22.80;32.69;97282.56;4937207;29;2059;-77
2022/08/25 10:19:50;;;;;;;;;;;;;;;22.74;32.60;97278.78;4921481;29;987;-78
2022/08/25 10:22:24;;;;;;;;;;;;;;;22.71;32.81;97274.03;4927037;29;1433;-77
2022/08/25 10:24:50;;;;;;;;;;;;;;;22.94;32.38;97274.72;4918240;29;1214;-77
2022/08/25 10:27:24;;;;;;;;;;;;;;;22.91;32.26;97281.34;4918331;29;1142;-78
2022/08/25 10:30:04;;;;;;;;;;;;;;;22.74;32.74;97278.78;4843305;29;1919;-78
2022/08/25 10:32:45;;;;;;;;;;;;;;;23.03;32.22;97297.41;4843486;29;905;-78
2022/08/25 10:35:15;;;;;;;;;;;;;;;23.02;32.12;97287.34;4844009;29;938;-78
2022/08/25 10:37:46;;;;;;;;;;;;;;;22.91;32.29;97287.03;4841577;29;1864;-78
2022/08/25 10:40:19;;;;;;;;;;;;;;;22.79;32.30;97297.97;4842831;29;1848;-77
2022/08/25 10:43:05;;;;;;;;;;;;;;;22.87;32.33;97302.09;4806413;29;1910;-77
2022/08/25 10:45:41;;;;;;;;;;;;;;;22.94;32.10;97305.91;4806406;29;1917;-78
2022/08/25 10:48:11;;;;;;;;;;;;;;;22.94;32.05;97303.88;4801810;29;2013;-78
2022/08/25 10:50:46;;;;;;;;;;;;;;;22.96;32.05;97297.75;4806495;29;1911;-78
2022/08/25 10:53:21;;;;;;;;;;;;;;;23.14;31.86;97300.56;4791696;29;920;-78
2022/08/25 10:56:16;;;;;;;;;;;;;;;23.02;31.74;97315.72;4806682;29;1131;-78
2022/08/25 10:58:47;;;;;;;;;;;;;;;23.04;31.95;97316.03;4746913;30;2000;-78
2022/08/25 11:01:18;;;;;;;;;;;;;;;22.81;31.97;97323.06;4776211;30;953;-78
2022/08/25 11:03:51;;;;;;;;;;;;;;;22.91;31.89;97315.38;4789283;30;924;-78
2022/08/25 11:06:19;;;;;;;;;;;;;;;22.91;31.99;97321.06;4775525;29;941;-77
2022/08/25 11:08:44;;;;;;;;;;;;;;;22.53;32.54;97325.03;4790556;29;1949;-78
2022/08/25 11:11:20;;;;;;;;;;;;;;;22.97;31.85;97319.19;4806718;29;958;-77
2022/08/25 11:14:00;;;;;;;;;;;;;;;22.80;32.16;97327.16;4824736;29;975;-78
2022/08/25 11:16:39;;;;;;;;;;;;;;;23.05;31.40;97320.44;4828120;29;958;-77
2022/08/25 11:19:06;;;;;;;;;;;;;;;22.84;32.00;97322.88;4827949;29;967;-78
2022/08/25 11:21:52;;;;;;;;;;;;;;;22.92;31.76;97328.31;4853555;29;1002;-77
2022/08/25 11:24:23;;;;;;;;;;;;;;;22.85;32.19;97329.38;4897689;29;2035;-78
2022/08/25 11:26:50;;;;;;;;;;;;;;;22.91;31.83;97323.91;4883211;29;1006;-77
2022/08/25 11:29:16;;;;;;;;;;;;;;;23.13;31.51;97327.38;4882829;29;1911;-79
2022/08/25 11:31:43;;;;;;;;;;;;;;;22.92;31.93;97331.16;4882783;29;947;-77
2022/08/25 11:34:09;;;;;;;;;;;;;;;23.03;31.46;97331.47;4893709;28;989;-78
2022/08/25 11:36:35;;;;;;;;;;;;;;;22.94;31.78;97317.25;4979077;28;1102;-78
2022/08/25 11:39:10;;;;;;;;;;;;;;;22.77;31.98;97314.69;4994633;28;2081;-78
2022/08/25 11:41:41;;;;;;;;;;;;;;;22.69;32.09;97310.59;4996162;28;920;-78
2022/08/25 11:44:13;;;;;;;;;;;;;;;22.95;31.57;97298.97;4991484;28;1921;-77
2022/08/25 11:46:44;;;;;;;;;;;;;;;22.65;32.12;97292.94;4995702;28;960;-79
2022/08/25 11:49:13;;;;;;;;;;;;;;;23.02;31.69;97298.69;4995960;28;1898;-78
2022/08/25 11:51:38;;;;;;;;;;;;;;;22.87;31.85;97304.16;4996139;28;1082;-77
2022/08/25 11:54:13;;;;;;;;;;;;;;;22.80;32.07;97293.91;4995860;28;919;-78
2022/08/25 11:56:40;;;;;;;;;;;;;;;23.16;31.36;97300.09;4957023;28;1265;-77
2022/08/25 11:59:06;;;;;;;;;;;;;;;23.04;31.50;97296.94;4901666;29;935;-77
2022/08/25 12:01:43;;;;;;;;;;;;;;;22.60;32.53;97307.72;4912232;29;1947;-78
2022/08/25 12:04:29;;;;;;;;;;;;;;;22.96;31.88;97295.69;4935669;29;1008;-78
2022/08/25 12:07:10;;;;;;;;;;;;;;;22.93;31.58;97295.84;4918056;29;957;-78
2022/08/25 12:09:47;;;;;;;;;;;;;;;22.84;31.48;97297.34;4916713;29;1907;-78
2022/08/25 12:12:27;;;;;;;;;;;;;;;22.81;31.75;97301.16;4917001;29;1008;-78
2022/08/25 12:14:53;;;;;;;;;;;;;;;22.92;31.49;97316.97;4916643;29;1098;-78
2022/08/25 12:17:23;;;;;;;;;;;;;;;22.46;31.82;97257.28;4917149;29;1109;-78
2022/08/25 12:19:50;;;;;;;;;;;;;;;22.72;31.74;97318.16;4861415;29;2024;-78
2022/08/25 12:22:15;;;;;;;;;;;;;;;22.76;31.76;97295.31;4829464;29;2019;-77
2022/08/25 12:24:40;;;;;;;;;;;;;;;22.81;31.51;97311.72;4860215;29;1208;-77
2022/08/25 12:27:06;;;;;;;;;;;;;;;22.74;31.97;97307.13;4865614;29;1003;-78
2022/08/25 12:29:41;;;;;;;;;;;;;;;23.01;31.27;97306.41;4862890;29;1915;-78
2022/08/25 12:32:30;;;;;;;;;;;;;;;22.77;31.72;97300.50;4863682;29;977;-78
2022/08/25 12:35:14;;;;;;;;;;;;;;;22.94;31.55;97298.19;4878758;29;1465;-77
2022/08/25 12:37:52;;;;;;;;;;;;;;;22.97;31.56;97296.47;4863825;29;1886;-78
2022/08/25 12:40:28;;;;;;;;;;;;;;;22.89;31.56;97295.97;4881296;29;945;-78
2022/08/25 12:43:21;;;;;;;;;;;;;;;22.76;31.65;97298.94;4901014;29;997;-78
2022/08/25 12:45:47;;;;;;;;;;;;;;;22.77;32.10;97282.72;4900699;29;1057;-78
2022/08/25 12:48:27;;;;;;;;;;;;;;;22.79;31.82;97297.97;4900798;29;1543;-77
2022/08/25 12:50:56;;;;;;;;;;;;;;;22.86;31.79;97297.69;4937045;29;1903;-78
2022/08/25 12:53:34;;;;;;;;;;;;;;;22.88;31.64;97300.88;4935965;29;2019;-77
2022/08/25 12:56:02;;;;;;;;;;;;;;;22.97;31.54;97287.97;4935683;29;1173;-78
2022/08/25 12:58:30;;;;;;;;;;;;;;;22.89;31.99;97284.63;4954187;29;1086;-77
2022/08/25 13:01:16;;;;;;;;;;;;;;;22.88;32.01;97300.88;4954691;29;1362;-78
2022/08/25 13:04:07;;;;;;;;;;;;;;;22.83;31.81;97298.63;4938714;29;1198;-78
2022/08/25 13:06:52;;;;;;;;;;;;;;;22.77;31.77;97294.84;4956832;29;2115;-78
2022/08/25 13:09:36;;;;;;;;;;;;;;;22.60;32.36;97299.22;4958057;29;1977;-78
2022/08/25 13:12:04;;;;;;;;;;;;;;;22.80;31.63;97287.44;4957864;29;943;-78
2022/08/25 13:14:33;;;;;;;;;;;;;;;22.93;31.77;97301.50;4957076;28;1843;-78